sensor_id;sensor_type;location;lat;lon;timestamp;P1;durP1;ratioP1;P2;durP2;ratioP2
21272;SDS011;36726;52.328;10.552;2023-02-01T00:01:06;12.30;;;2.55;;
21272;SDS011;36726;52.328;10.552;2023-02-01T00:03:33;7.50;;;2.00;;
21272;SDS011;36726;52.328;10.552;2023-02-01T00:06:00;11.25;;;2.17;;
21272;SDS011;36726;52.328;10.552;2023-02-01T00:08:27;9.38;;;2.63;;
21272;SDS011;36726;52.328;10.552;2023-02-01T00:11:01;8.48;;;2.33;;
21272;SDS011;36726;52.328;10.552;2023-02-01T00:13:29;11.25;;;2.50;;
21272;SDS011;36726;52.328;10.552;2023-02-01T00:16:05;7.63;;;1.60;;
21272;SDS011;36726;52.328;10.552;2023-02-01T00:18:36;9.98;;;3.10;;
21272;SDS011;36726;52.328;10.552;2023-02-01T00:21:03;10.35;;;2.20;;
21272;SDS011;36726;52.328;10.552;2023-02-01T00:23:36;10.35;;;2.63;;
21272;SDS011;36726;52.328;10.552;2023-02-01T00:26:05;10.93;;;2.53;;
21272;SDS011;36726;52.328;10.552;2023-02-01T00:28:34;11.90;;;2.72;;
21272;SDS011;36726;52.328;10.552;2023-02-01T00:31:02;9.60;;;2.35;;
21272;SDS011;36726;52.328;10.552;2023-02-01T00:33:30;10.07;;;2.35;;
21272;SDS011;36726;52.328;10.552;2023-02-01T00:36:05;16.90;;;2.15;;
21272;SDS011;36726;52.328;10.552;2023-02-01T00:38:35;12.70;;;2.53;;
21272;SDS011;36726;52.328;10.552;2023-02-01T00:41:07;11.15;;;2.40;;
21272;SDS011;36726;52.328;10.552;2023-02-01T00:43:34;6.82;;;2.00;;
21272;SDS011;36726;52.328;10.552;2023-02-01T00:46:01;5.35;;;2.05;;
21272;SDS011;36726;52.328;10.552;2023-02-01T00:48:28;11.48;;;2.60;;
21272;SDS011;36726;52.328;10.552;2023-02-01T00:50:59;14.65;;;2.50;;
21272;SDS011;36726;52.328;10.552;2023-02-01T00:53:26;8.82;;;1.88;;
21272;SDS011;36726;52.328;10.552;2023-02-01T00:55:53;13.05;;;2.20;;
21272;SDS011;36726;52.328;10.552;2023-02-01T00:58:20;11.25;;;2.70;;
21272;SDS011;36726;52.328;10.552;2023-02-01T01:00:47;11.30;;;2.20;;
21272;SDS011;36726;52.328;10.552;2023-02-01T01:03:15;14.20;;;2.65;;
21272;SDS011;36726;52.328;10.552;2023-02-01T01:05:45;6.75;;;1.95;;
21272;SDS011;36726;52.328;10.552;2023-02-01T01:08:15;11.70;;;2.47;;
21272;SDS011;36726;52.328;10.552;2023-02-01T01:10:42;11.15;;;2.65;;
21272;SDS011;36726;52.328;10.552;2023-02-01T01:13:09;7.85;;;1.75;;
21272;SDS011;36726;52.328;10.552;2023-02-01T01:15:37;7.47;;;2.20;;
21272;SDS011;36726;52.328;10.552;2023-02-01T01:18:05;12.75;;;2.78;;
21272;SDS011;36726;52.328;10.552;2023-02-01T01:20:36;8.05;;;2.45;;
21272;SDS011;36726;52.328;10.552;2023-02-01T01:23:05;11.40;;;2.20;;
21272;SDS011;36726;52.328;10.552;2023-02-01T01:25:32;11.32;;;2.13;;
21272;SDS011;36726;52.328;10.552;2023-02-01T01:27:58;12.23;;;2.70;;
21272;SDS011;36726;52.328;10.552;2023-02-01T01:30:25;16.98;;;2.80;;
21272;SDS011;36726;52.328;10.552;2023-02-01T01:32:51;8.63;;;2.75;;
21272;SDS011;36726;52.328;10.552;2023-02-01T01:35:21;11.18;;;2.13;;
21272;SDS011;36726;52.328;10.552;2023-02-01T01:37:47;13.30;;;2.80;;
21272;SDS011;36726;52.328;10.552;2023-02-01T01:40:14;11.32;;;2.42;;
21272;SDS011;36726;52.328;10.552;2023-02-01T01:42:42;12.30;;;2.60;;
21272;SDS011;36726;52.328;10.552;2023-02-01T01:47:51;14.05;;;2.30;;
21272;SDS011;36726;52.328;10.552;2023-02-01T01:50:23;16.40;;;2.60;;
21272;SDS011;36726;52.328;10.552;2023-02-01T01:52:55;11.50;;;2.42;;
21272;SDS011;36726;52.328;10.552;2023-02-01T01:55:25;9.18;;;2.25;;
21272;SDS011;36726;52.328;10.552;2023-02-01T01:57:58;9.82;;;2.63;;
21272;SDS011;36726;52.328;10.552;2023-02-01T02:00:27;12.50;;;2.88;;
21272;SDS011;36726;52.328;10.552;2023-02-01T02:02:59;13.45;;;3.45;;
21272;SDS011;36726;52.328;10.552;2023-02-01T02:05:31;9.82;;;2.33;;
21272;SDS011;36726;52.328;10.552;2023-02-01T02:07:59;9.50;;;2.80;;
21272;SDS011;36726;52.328;10.552;2023-02-01T02:10:27;14.15;;;3.20;;
21272;SDS011;36726;52.328;10.552;2023-02-01T02:13:13;12.20;;;2.70;;
21272;SDS011;36726;52.328;10.552;2023-02-01T02:15:44;12.38;;;2.30;;
21272;SDS011;36726;52.328;10.552;2023-02-01T02:18:27;12.10;;;2.83;;
21272;SDS011;36726;52.328;10.552;2023-02-01T02:24:09;11.82;;;2.38;;
21272;SDS011;36726;52.328;10.552;2023-02-01T02:29:59;12.35;;;2.28;;
21272;SDS011;36726;52.328;10.552;2023-02-01T02:32:47;10.50;;;2.40;;
21272;SDS011;36726;52.328;10.552;2023-02-01T02:41:14;11.50;;;2.47;;
21272;SDS011;36726;52.328;10.552;2023-02-01T02:44:08;9.27;;;2.17;;
21272;SDS011;36726;52.328;10.552;2023-02-01T02:47:00;9.65;;;2.40;;
21272;SDS011;36726;52.328;10.552;2023-02-01T02:50:09;14.40;;;2.88;;
21272;SDS011;36726;52.328;10.552;2023-02-01T02:52:59;8.55;;;2.35;;
21272;SDS011;36726;52.328;10.552;2023-02-01T02:55:49;13.23;;;2.45;;
21272;SDS011;36726;52.328;10.552;2023-02-01T02:58:19;13.50;;;2.53;;
21272;SDS011;36726;52.328;10.552;2023-02-01T03:01:06;6.22;;;2.25;;
21272;SDS011;36726;52.328;10.552;2023-02-01T03:03:52;15.20;;;3.05;;
21272;SDS011;36726;52.328;10.552;2023-02-01T03:06:37;11.23;;;2.38;;
21272;SDS011;36726;52.328;10.552;2023-02-01T03:09:06;12.70;;;2.85;;
21272;SDS011;36726;52.328;10.552;2023-02-01T03:11:39;15.80;;;2.72;;
21272;SDS011;36726;52.328;10.552;2023-02-01T03:14:30;8.75;;;2.20;;
21272;SDS011;36726;52.328;10.552;2023-02-01T03:17:04;8.05;;;2.40;;
21272;SDS011;36726;52.328;10.552;2023-02-01T03:19:39;9.95;;;2.92;;
21272;SDS011;36726;52.328;10.552;2023-02-01T03:22:11;12.75;;;2.38;;
21272;SDS011;36726;52.328;10.552;2023-02-01T03:24:46;5.47;;;2.10;;
21272;SDS011;36726;52.328;10.552;2023-02-01T03:27:30;9.20;;;2.95;;
21272;SDS011;36726;52.328;10.552;2023-02-01T03:30:07;10.55;;;2.85;;
21272;SDS011;36726;52.328;10.552;2023-02-01T03:32:36;11.93;;;2.28;;
21272;SDS011;36726;52.328;10.552;2023-02-01T03:35:39;9.75;;;2.40;;
21272;SDS011;36726;52.328;10.552;2023-02-01T03:38:12;11.80;;;2.80;;
21272;SDS011;36726;52.328;10.552;2023-02-01T03:40:41;12.35;;;2.95;;
21272;SDS011;36726;52.328;10.552;2023-02-01T03:43:14;12.27;;;2.92;;
21272;SDS011;36726;52.328;10.552;2023-02-01T03:45:47;10.48;;;2.95;;
21272;SDS011;36726;52.328;10.552;2023-02-01T03:48:17;12.30;;;2.80;;
21272;SDS011;36726;52.328;10.552;2023-02-01T03:50:46;7.50;;;2.38;;
21272;SDS011;36726;52.328;10.552;2023-02-01T03:53:16;11.02;;;2.63;;
21272;SDS011;36726;52.328;10.552;2023-02-01T03:55:46;17.15;;;2.75;;
21272;SDS011;36726;52.328;10.552;2023-02-01T03:58:14;11.82;;;2.67;;
21272;SDS011;36726;52.328;10.552;2023-02-01T04:00:56;10.00;;;2.40;;
21272;SDS011;36726;52.328;10.552;2023-02-01T04:03:24;8.75;;;2.58;;
21272;SDS011;36726;52.328;10.552;2023-02-01T04:05:52;7.85;;;2.83;;
21272;SDS011;36726;52.328;10.552;2023-02-01T04:08:23;7.75;;;2.35;;
21272;SDS011;36726;52.328;10.552;2023-02-01T04:10:50;10.77;;;2.67;;
21272;SDS011;36726;52.328;10.552;2023-02-01T04:13:16;13.50;;;2.95;;
21272;SDS011;36726;52.328;10.552;2023-02-01T04:15:43;7.25;;;2.72;;
21272;SDS011;36726;52.328;10.552;2023-02-01T04:18:09;11.48;;;3.35;;
21272;SDS011;36726;52.328;10.552;2023-02-01T04:20:36;12.38;;;2.95;;
21272;SDS011;36726;52.328;10.552;2023-02-01T04:23:05;16.45;;;3.40;;
21272;SDS011;36726;52.328;10.552;2023-02-01T04:25:31;10.98;;;3.25;;
21272;SDS011;36726;52.328;10.552;2023-02-01T04:27:58;8.73;;;3.10;;
21272;SDS011;36726;52.328;10.552;2023-02-01T04:30:25;14.95;;;3.00;;
21272;SDS011;36726;52.328;10.552;2023-02-01T04:32:52;8.38;;;2.95;;
21272;SDS011;36726;52.328;10.552;2023-02-01T04:35:18;9.07;;;2.85;;
21272;SDS011;36726;52.328;10.552;2023-02-01T04:37:45;9.35;;;2.80;;
21272;SDS011;36726;52.328;10.552;2023-02-01T04:40:11;9.75;;;2.95;;
21272;SDS011;36726;52.328;10.552;2023-02-01T04:42:38;9.35;;;2.80;;
21272;SDS011;36726;52.328;10.552;2023-02-01T04:45:05;10.48;;;3.17;;
21272;SDS011;36726;52.328;10.552;2023-02-01T04:47:32;11.68;;;3.25;;
21272;SDS011;36726;52.328;10.552;2023-02-01T04:49:58;14.10;;;3.13;;
21272;SDS011;36726;52.328;10.552;2023-02-01T04:52:25;9.05;;;3.33;;
21272;SDS011;36726;52.328;10.552;2023-02-01T04:54:51;15.20;;;3.25;;
21272;SDS011;36726;52.328;10.552;2023-02-01T04:57:22;11.70;;;3.22;;
21272;SDS011;36726;52.328;10.552;2023-02-01T04:59:48;12.05;;;2.83;;
21272;SDS011;36726;52.328;10.552;2023-02-01T05:02:15;13.30;;;3.33;;
21272;SDS011;36726;52.328;10.552;2023-02-01T05:04:41;11.75;;;3.40;;
21272;SDS011;36726;52.328;10.552;2023-02-01T05:07:08;15.07;;;2.60;;
21272;SDS011;36726;52.328;10.552;2023-02-01T05:09:34;9.68;;;3.13;;
21272;SDS011;36726;52.328;10.552;2023-02-01T05:12:01;14.63;;;3.28;;
21272;SDS011;36726;52.328;10.552;2023-02-01T05:14:46;13.18;;;3.47;;
21272;SDS011;36726;52.328;10.552;2023-02-01T05:17:14;16.05;;;3.30;;
21272;SDS011;36726;52.328;10.552;2023-02-01T05:19:40;13.48;;;3.38;;
21272;SDS011;36726;52.328;10.552;2023-02-01T05:22:07;11.73;;;2.80;;
21272;SDS011;36726;52.328;10.552;2023-02-01T05:24:34;12.73;;;3.22;;
21272;SDS011;36726;52.328;10.552;2023-02-01T05:27:00;11.60;;;3.60;;
21272;SDS011;36726;52.328;10.552;2023-02-01T05:29:27;18.10;;;3.65;;
21272;SDS011;36726;52.328;10.552;2023-02-01T05:31:53;9.88;;;3.28;;
21272;SDS011;36726;52.328;10.552;2023-02-01T05:34:20;15.25;;;3.53;;
21272;SDS011;36726;52.328;10.552;2023-02-01T05:36:48;10.55;;;3.55;;
21272;SDS011;36726;52.328;10.552;2023-02-01T05:39:14;10.73;;;3.58;;
21272;SDS011;36726;52.328;10.552;2023-02-01T05:41:41;12.15;;;3.67;;
21272;SDS011;36726;52.328;10.552;2023-02-01T05:44:16;9.32;;;3.38;;
21272;SDS011;36726;52.328;10.552;2023-02-01T05:46:43;12.63;;;3.47;;
21272;SDS011;36726;52.328;10.552;2023-02-01T05:49:09;12.43;;;3.67;;
21272;SDS011;36726;52.328;10.552;2023-02-01T05:51:36;13.10;;;3.63;;
21272;SDS011;36726;52.328;10.552;2023-02-01T05:54:02;15.18;;;3.83;;
21272;SDS011;36726;52.328;10.552;2023-02-01T05:56:29;13.05;;;3.42;;
21272;SDS011;36726;52.328;10.552;2023-02-01T05:58:55;12.60;;;3.72;;
21272;SDS011;36726;52.328;10.552;2023-02-01T06:01:22;11.63;;;3.35;;
21272;SDS011;36726;52.328;10.552;2023-02-01T06:03:48;15.57;;;3.72;;
21272;SDS011;36726;52.328;10.552;2023-02-01T06:06:15;8.80;;;3.40;;
21272;SDS011;36726;52.328;10.552;2023-02-01T06:08:41;13.93;;;3.58;;
21272;SDS011;36726;52.328;10.552;2023-02-01T06:11:08;12.88;;;3.83;;
21272;SDS011;36726;52.328;10.552;2023-02-01T06:13:38;14.88;;;4.13;;
21272;SDS011;36726;52.328;10.552;2023-02-01T06:16:05;15.57;;;3.55;;
21272;SDS011;36726;52.328;10.552;2023-02-01T06:18:34;13.85;;;4.13;;
21272;SDS011;36726;52.328;10.552;2023-02-01T06:21:01;10.48;;;3.53;;
21272;SDS011;36726;52.328;10.552;2023-02-01T06:23:29;12.82;;;4.15;;
21272;SDS011;36726;52.328;10.552;2023-02-01T06:26:00;19.23;;;3.67;;
21272;SDS011;36726;52.328;10.552;2023-02-01T06:28:31;12.95;;;3.88;;
21272;SDS011;36726;52.328;10.552;2023-02-01T06:31:06;12.80;;;3.38;;
21272;SDS011;36726;52.328;10.552;2023-02-01T06:33:34;8.57;;;3.20;;
21272;SDS011;36726;52.328;10.552;2023-02-01T06:36:03;11.32;;;3.78;;
21272;SDS011;36726;52.328;10.552;2023-02-01T06:38:31;13.60;;;3.47;;
21272;SDS011;36726;52.328;10.552;2023-02-01T06:41:01;13.50;;;3.50;;
21272;SDS011;36726;52.328;10.552;2023-02-01T06:43:28;12.82;;;3.67;;
21272;SDS011;36726;52.328;10.552;2023-02-01T06:45:59;12.40;;;3.15;;
21272;SDS011;36726;52.328;10.552;2023-02-01T06:48:27;10.63;;;3.25;;
21272;SDS011;36726;52.328;10.552;2023-02-01T06:50:55;11.98;;;3.33;;
21272;SDS011;36726;52.328;10.552;2023-02-01T06:53:22;10.50;;;3.35;;
21272;SDS011;36726;52.328;10.552;2023-02-01T06:55:55;11.23;;;2.90;;
21272;SDS011;36726;52.328;10.552;2023-02-01T06:58:32;10.98;;;3.53;;
21272;SDS011;36726;52.328;10.552;2023-02-01T07:01:06;10.00;;;3.70;;
21272;SDS011;36726;52.328;10.552;2023-02-01T07:03:34;12.20;;;3.13;;
21272;SDS011;36726;52.328;10.552;2023-02-01T07:06:02;11.32;;;3.60;;
21272;SDS011;36726;52.328;10.552;2023-02-01T07:08:30;10.10;;;2.67;;
21272;SDS011;36726;52.328;10.552;2023-02-01T07:11:03;11.23;;;3.55;;
21272;SDS011;36726;52.328;10.552;2023-02-01T07:13:36;9.43;;;3.10;;
21272;SDS011;36726;52.328;10.552;2023-02-01T07:16:04;15.02;;;2.80;;
21272;SDS011;36726;52.328;10.552;2023-02-01T07:18:33;6.78;;;2.95;;
21272;SDS011;36726;52.328;10.552;2023-02-01T07:20:59;7.63;;;2.80;;
21272;SDS011;36726;52.328;10.552;2023-02-01T07:23:27;7.40;;;2.53;;
21272;SDS011;36726;52.328;10.552;2023-02-01T07:25:57;13.45;;;2.80;;
21272;SDS011;36726;52.328;10.552;2023-02-01T07:28:25;9.15;;;2.65;;
21272;SDS011;36726;52.328;10.552;2023-02-01T07:30:52;12.63;;;2.92;;
21272;SDS011;36726;52.328;10.552;2023-02-01T07:33:22;9.30;;;2.75;;
21272;SDS011;36726;52.328;10.552;2023-02-01T07:35:53;9.50;;;3.03;;
21272;SDS011;36726;52.328;10.552;2023-02-01T07:38:20;12.25;;;2.60;;
21272;SDS011;36726;52.328;10.552;2023-02-01T07:40:47;13.95;;;2.75;;
21272;SDS011;36726;52.328;10.552;2023-02-01T07:43:14;8.10;;;2.20;;
21272;SDS011;36726;52.328;10.552;2023-02-01T07:45:40;12.50;;;2.42;;
21272;SDS011;36726;52.328;10.552;2023-02-01T07:48:07;8.55;;;2.65;;
21272;SDS011;36726;52.328;10.552;2023-02-01T07:50:34;5.68;;;2.30;;
21272;SDS011;36726;52.328;10.552;2023-02-01T07:53:00;8.48;;;2.35;;
21272;SDS011;36726;52.328;10.552;2023-02-01T07:55:27;8.27;;;2.70;;
21272;SDS011;36726;52.328;10.552;2023-02-01T07:57:58;10.45;;;2.65;;
21272;SDS011;36726;52.328;10.552;2023-02-01T08:00:25;9.45;;;2.95;;
21272;SDS011;36726;52.328;10.552;2023-02-01T08:03:11;9.05;;;2.72;;
21272;SDS011;36726;52.328;10.552;2023-02-01T08:05:37;10.82;;;2.80;;
21272;SDS011;36726;52.328;10.552;2023-02-01T08:08:04;9.07;;;2.63;;
21272;SDS011;36726;52.328;10.552;2023-02-01T08:10:32;11.63;;;2.95;;
21272;SDS011;36726;52.328;10.552;2023-02-01T08:12:59;9.70;;;3.13;;
21272;SDS011;36726;52.328;10.552;2023-02-01T08:15:27;10.23;;;2.58;;
21272;SDS011;36726;52.328;10.552;2023-02-01T08:17:54;11.35;;;3.22;;
21272;SDS011;36726;52.328;10.552;2023-02-01T08:20:21;11.52;;;3.10;;
21272;SDS011;36726;52.328;10.552;2023-02-01T08:22:52;11.95;;;3.00;;
21272;SDS011;36726;52.328;10.552;2023-02-01T08:25:20;15.80;;;3.25;;
21272;SDS011;36726;52.328;10.552;2023-02-01T08:27:46;14.80;;;3.92;;
21272;SDS011;36726;52.328;10.552;2023-02-01T08:30:13;11.80;;;3.25;;
21272;SDS011;36726;52.328;10.552;2023-02-01T08:32:40;16.05;;;3.70;;
21272;SDS011;36726;52.328;10.552;2023-02-01T08:35:07;18.40;;;3.90;;
21272;SDS011;36726;52.328;10.552;2023-02-01T08:37:34;17.65;;;3.60;;
21272;SDS011;36726;52.328;10.552;2023-02-01T08:40:01;12.82;;;3.95;;
21272;SDS011;36726;52.328;10.552;2023-02-01T08:42:28;24.15;;;4.05;;
21272;SDS011;36726;52.328;10.552;2023-02-01T08:45:13;15.73;;;3.70;;
21272;SDS011;36726;52.328;10.552;2023-02-01T08:47:40;22.17;;;4.43;;
21272;SDS011;36726;52.328;10.552;2023-02-01T08:50:06;16.92;;;2.95;;
21272;SDS011;36726;52.328;10.552;2023-02-01T08:52:34;11.02;;;2.58;;
21272;SDS011;36726;52.328;10.552;2023-02-01T08:55:03;11.73;;;2.03;;
21272;SDS011;36726;52.328;10.552;2023-02-01T08:57:30;3.72;;;1.50;;
21272;SDS011;36726;52.328;10.552;2023-02-01T08:59:57;8.20;;;1.65;;
21272;SDS011;36726;52.328;10.552;2023-02-01T09:02:23;4.97;;;1.20;;
21272;SDS011;36726;52.328;10.552;2023-02-01T09:04:50;3.53;;;1.20;;
21272;SDS011;36726;52.328;10.552;2023-02-01T09:07:16;3.78;;;1.35;;
21272;SDS011;36726;52.328;10.552;2023-02-01T09:09:44;4.07;;;1.45;;
21272;SDS011;36726;52.328;10.552;2023-02-01T09:12:11;5.03;;;1.30;;
21272;SDS011;36726;52.328;10.552;2023-02-01T09:14:38;7.18;;;1.63;;
21272;SDS011;36726;52.328;10.552;2023-02-01T09:17:04;9.82;;;1.83;;
21272;SDS011;36726;52.328;10.552;2023-02-01T09:19:31;8.98;;;2.40;;
21272;SDS011;36726;52.328;10.552;2023-02-01T09:21:58;14.30;;;2.38;;
21272;SDS011;36726;52.328;10.552;2023-02-01T09:24:24;10.70;;;2.42;;
21272;SDS011;36726;52.328;10.552;2023-02-01T09:26:51;11.63;;;2.55;;
21272;SDS011;36726;52.328;10.552;2023-02-01T09:29:18;11.00;;;2.80;;
21272;SDS011;36726;52.328;10.552;2023-02-01T09:31:45;13.07;;;2.97;;
21272;SDS011;36726;52.328;10.552;2023-02-01T09:34:28;10.48;;;3.05;;
21272;SDS011;36726;52.328;10.552;2023-02-01T09:36:55;15.60;;;3.63;;
21272;SDS011;36726;52.328;10.552;2023-02-01T09:39:21;24.40;;;3.50;;
21272;SDS011;36726;52.328;10.552;2023-02-01T09:47:22;7.70;;;2.63;;
21272;SDS011;36726;52.328;10.552;2023-02-01T09:49:58;8.07;;;2.80;;
21272;SDS011;36726;52.328;10.552;2023-02-01T09:52:36;17.27;;;3.22;;
21272;SDS011;36726;52.328;10.552;2023-02-01T09:58:16;14.10;;;3.03;;
21272;SDS011;36726;52.328;10.552;2023-02-01T10:00:53;10.93;;;2.58;;
21272;SDS011;36726;52.328;10.552;2023-02-01T10:03:23;15.18;;;3.03;;
21272;SDS011;36726;52.328;10.552;2023-02-01T10:05:56;8.68;;;2.40;;
21272;SDS011;36726;52.328;10.552;2023-02-01T10:26:03;6.03;;;2.20;;
21272;SDS011;36726;52.328;10.552;2023-02-01T10:28:38;9.57;;;2.60;;
21272;SDS011;36726;52.328;10.552;2023-02-01T10:31:07;11.27;;;2.35;;
21272;SDS011;36726;52.328;10.552;2023-02-01T10:33:40;6.22;;;1.85;;
21272;SDS011;36726;52.328;10.552;2023-02-01T10:36:16;5.35;;;2.20;;
21272;SDS011;36726;52.328;10.552;2023-02-01T10:38:47;10.27;;;2.10;;
21272;SDS011;36726;52.328;10.552;2023-02-01T10:41:21;9.85;;;2.47;;
21272;SDS011;36726;52.328;10.552;2023-02-01T10:43:56;8.77;;;2.38;;
21272;SDS011;36726;52.328;10.552;2023-02-01T10:46:26;9.60;;;2.97;;
21272;SDS011;36726;52.328;10.552;2023-02-01T10:48:53;7.70;;;2.17;;
21272;SDS011;36726;52.328;10.552;2023-02-01T10:51:23;7.45;;;2.10;;
21272;SDS011;36726;52.328;10.552;2023-02-01T10:53:54;8.40;;;1.73;;
21272;SDS011;36726;52.328;10.552;2023-02-01T10:56:25;6.85;;;2.22;;
21272;SDS011;36726;52.328;10.552;2023-02-01T10:59:03;7.28;;;2.20;;
21272;SDS011;36726;52.328;10.552;2023-02-01T11:01:37;7.90;;;2.30;;
21272;SDS011;36726;52.328;10.552;2023-02-01T11:04:07;17.17;;;2.50;;
21272;SDS011;36726;52.328;10.552;2023-02-01T11:06:40;8.43;;;1.77;;
21272;SDS011;36726;52.328;10.552;2023-02-01T11:09:10;8.75;;;2.13;;
21272;SDS011;36726;52.328;10.552;2023-02-01T11:20:03;6.45;;;1.67;;
21272;SDS011;36726;52.328;10.552;2023-02-01T11:22:35;8.45;;;2.05;;
21272;SDS011;36726;52.328;10.552;2023-02-01T11:25:01;10.25;;;2.30;;
21272;SDS011;36726;52.328;10.552;2023-02-01T11:27:35;6.70;;;1.80;;
21272;SDS011;36726;52.328;10.552;2023-02-01T11:30:16;4.30;;;1.83;;
21272;SDS011;36726;52.328;10.552;2023-02-01T11:32:46;6.78;;;1.98;;
21272;SDS011;36726;52.328;10.552;2023-02-01T11:35:16;6.80;;;2.28;;
21272;SDS011;36726;52.328;10.552;2023-02-01T11:37:59;6.25;;;2.15;;
21272;SDS011;36726;52.328;10.552;2023-02-01T11:40:28;8.18;;;2.05;;
21272;SDS011;36726;52.328;10.552;2023-02-01T11:43:01;4.50;;;1.88;;
21272;SDS011;36726;52.328;10.552;2023-02-01T11:45:53;8.63;;;2.10;;
21272;SDS011;36726;52.328;10.552;2023-02-01T11:48:23;4.80;;;2.03;;
21272;SDS011;36726;52.328;10.552;2023-02-01T11:51:02;5.70;;;1.88;;
21272;SDS011;36726;52.328;10.552;2023-02-01T12:01:35;12.38;;;2.50;;
21272;SDS011;36726;52.328;10.552;2023-02-01T12:06:52;7.53;;;2.03;;
21272;SDS011;36726;52.328;10.552;2023-02-01T12:09:30;7.45;;;2.22;;
21272;SDS011;36726;52.328;10.552;2023-02-01T12:17:57;8.02;;;2.30;;
21272;SDS011;36726;52.328;10.552;2023-02-01T12:23:23;3.65;;;1.65;;
21272;SDS011;36726;52.328;10.552;2023-02-01T12:26:01;7.25;;;2.42;;
21272;SDS011;36726;52.328;10.552;2023-02-01T12:34:13;6.43;;;1.70;;
21272;SDS011;36726;52.328;10.552;2023-02-01T12:36:59;7.28;;;2.33;;
21272;SDS011;36726;52.328;10.552;2023-02-01T12:42:13;4.70;;;2.53;;
21272;SDS011;36726;52.328;10.552;2023-02-01T12:44:55;10.70;;;2.25;;
21272;SDS011;36726;52.328;10.552;2023-02-01T12:47:31;10.10;;;2.45;;
21272;SDS011;36726;52.328;10.552;2023-02-01T12:50:04;7.15;;;1.92;;
21272;SDS011;36726;52.328;10.552;2023-02-01T12:52:42;9.48;;;2.20;;
21272;SDS011;36726;52.328;10.552;2023-02-01T12:55:20;5.70;;;2.08;;
21272;SDS011;36726;52.328;10.552;2023-02-01T12:57:56;7.30;;;2.20;;
21272;SDS011;36726;52.328;10.552;2023-02-01T13:00:38;9.48;;;2.22;;
21272;SDS011;36726;52.328;10.552;2023-02-01T13:06:02;6.68;;;1.90;;
21272;SDS011;36726;52.328;10.552;2023-02-01T13:09:37;10.70;;;2.40;;
21272;SDS011;36726;52.328;10.552;2023-02-01T13:11:45;9.43;;;2.22;;
21272;SDS011;36726;52.328;10.552;2023-02-01T13:14:21;9.63;;;2.67;;
21272;SDS011;36726;52.328;10.552;2023-02-01T13:17:00;6.88;;;2.25;;
21272;SDS011;36726;52.328;10.552;2023-02-01T13:22:25;7.25;;;2.53;;
21272;SDS011;36726;52.328;10.552;2023-02-01T13:25:11;5.55;;;1.98;;
21272;SDS011;36726;52.328;10.552;2023-02-01T13:27:42;4.40;;;2.40;;
21272;SDS011;36726;52.328;10.552;2023-02-01T13:30:29;5.22;;;2.30;;
21272;SDS011;36726;52.328;10.552;2023-02-01T13:33:17;8.38;;;1.90;;
21272;SDS011;36726;52.328;10.552;2023-02-01T13:39:18;9.07;;;2.35;;
21272;SDS011;36726;52.328;10.552;2023-02-01T13:41:56;6.20;;;2.30;;
21272;SDS011;36726;52.328;10.552;2023-02-01T13:44:47;11.15;;;2.50;;
21272;SDS011;36726;52.328;10.552;2023-02-01T13:49:50;8.50;;;2.20;;
21272;SDS011;36726;52.328;10.552;2023-02-01T13:52:22;7.93;;;2.40;;
21272;SDS011;36726;52.328;10.552;2023-02-01T13:55:02;6.65;;;2.38;;
21272;SDS011;36726;52.328;10.552;2023-02-01T13:57:41;7.43;;;1.55;;
21272;SDS011;36726;52.328;10.552;2023-02-01T14:13:37;1.05;;;0.35;;
21272;SDS011;36726;52.328;10.552;2023-02-01T14:26:40;1.50;;;0.40;;
21272;SDS011;36726;52.328;10.552;2023-02-01T14:34:31;1.38;;;0.50;;
21272;SDS011;36726;52.328;10.552;2023-02-01T14:37:10;3.38;;;1.15;;
21272;SDS011;36726;52.328;10.552;2023-02-01T14:40:01;1.35;;;0.40;;
21272;SDS011;36726;52.328;10.552;2023-02-01T14:42:38;2.03;;;0.50;;
21272;SDS011;36726;52.328;10.552;2023-02-01T15:01:34;0.77;;;0.50;;
21272;SDS011;36726;52.328;10.552;2023-02-01T15:04:09;1.02;;;0.43;;
21272;SDS011;36726;52.328;10.552;2023-02-01T15:06:46;1.75;;;0.60;;
21272;SDS011;36726;52.328;10.552;2023-02-01T15:09:16;2.97;;;0.50;;
21272;SDS011;36726;52.328;10.552;2023-02-01T15:14:32;1.40;;;0.60;;
21272;SDS011;36726;52.328;10.552;2023-02-01T15:17:16;0.88;;;0.45;;
21272;SDS011;36726;52.328;10.552;2023-02-01T15:22:30;2.65;;;0.60;;
21272;SDS011;36726;52.328;10.552;2023-02-01T15:24:58;0.85;;;0.60;;
21272;SDS011;36726;52.328;10.552;2023-02-01T15:27:26;2.17;;;0.88;;
21272;SDS011;36726;52.328;10.552;2023-02-01T15:29:54;1.30;;;0.70;;
21272;SDS011;36726;52.328;10.552;2023-02-01T15:32:33;2.13;;;0.90;;
21272;SDS011;36726;52.328;10.552;2023-02-01T15:35:02;3.05;;;0.75;;
21272;SDS011;36726;52.328;10.552;2023-02-01T15:37:28;2.25;;;0.80;;
21272;SDS011;36726;52.328;10.552;2023-02-01T15:40:04;2.70;;;0.60;;
21272;SDS011;36726;52.328;10.552;2023-02-01T15:45:27;2.92;;;1.10;;
21272;SDS011;36726;52.328;10.552;2023-02-01T15:47:55;2.38;;;1.00;;
21272;SDS011;36726;52.328;10.552;2023-02-01T15:50:24;4.53;;;0.90;;
21272;SDS011;36726;52.328;10.552;2023-02-01T15:52:53;7.93;;;1.35;;
21272;SDS011;36726;52.328;10.552;2023-02-01T15:55:34;4.57;;;1.00;;
21272;SDS011;36726;52.328;10.552;2023-02-01T15:58:08;7.95;;;1.05;;
21272;SDS011;36726;52.328;10.552;2023-02-01T16:00:45;5.18;;;1.00;;
21272;SDS011;36726;52.328;10.552;2023-02-01T16:06:26;2.70;;;0.85;;
21272;SDS011;36726;52.328;10.552;2023-02-01T16:09:17;6.20;;;1.05;;
21272;SDS011;36726;52.328;10.552;2023-02-01T16:14:24;6.25;;;3.10;;
21272;SDS011;36726;52.328;10.552;2023-02-01T16:16:51;6.75;;;1.27;;
21272;SDS011;36726;52.328;10.552;2023-02-01T16:19:19;4.60;;;1.58;;
21272;SDS011;36726;52.328;10.552;2023-02-01T16:21:46;3.08;;;1.00;;
21272;SDS011;36726;52.328;10.552;2023-02-01T16:24:13;5.90;;;1.52;;
21272;SDS011;36726;52.328;10.552;2023-02-01T16:26:40;6.47;;;1.45;;
21272;SDS011;36726;52.328;10.552;2023-02-01T16:29:06;5.80;;;1.60;;
21272;SDS011;36726;52.328;10.552;2023-02-01T16:31:35;4.25;;;1.25;;
21272;SDS011;36726;52.328;10.552;2023-02-01T16:34:04;6.03;;;1.50;;
21272;SDS011;36726;52.328;10.552;2023-02-01T16:36:33;3.58;;;1.60;;
21272;SDS011;36726;52.328;10.552;2023-02-01T16:39:00;2.05;;;1.05;;
21272;SDS011;36726;52.328;10.552;2023-02-01T16:41:26;4.57;;;1.60;;
21272;SDS011;36726;52.328;10.552;2023-02-01T16:43:54;7.95;;;1.90;;
21272;SDS011;36726;52.328;10.552;2023-02-01T16:46:22;7.85;;;1.70;;
21272;SDS011;36726;52.328;10.552;2023-02-01T16:48:52;4.13;;;1.50;;
21272;SDS011;36726;52.328;10.552;2023-02-01T16:51:21;5.03;;;1.73;;
21272;SDS011;36726;52.328;10.552;2023-02-01T16:53:50;5.57;;;1.60;;
21272;SDS011;36726;52.328;10.552;2023-02-01T16:56:28;6.93;;;2.13;;
21272;SDS011;36726;52.328;10.552;2023-02-01T16:58:57;4.75;;;1.92;;
21272;SDS011;36726;52.328;10.552;2023-02-01T17:01:24;7.85;;;1.45;;
21272;SDS011;36726;52.328;10.552;2023-02-01T17:03:51;5.40;;;1.63;;
21272;SDS011;36726;52.328;10.552;2023-02-01T17:06:19;6.63;;;1.60;;
21272;SDS011;36726;52.328;10.552;2023-02-01T17:08:49;5.22;;;2.05;;
21272;SDS011;36726;52.328;10.552;2023-02-01T17:11:26;7.35;;;1.80;;
21272;SDS011;36726;52.328;10.552;2023-02-01T17:13:56;7.13;;;1.98;;
21272;SDS011;36726;52.328;10.552;2023-02-01T17:16:28;4.45;;;1.63;;
21272;SDS011;36726;52.328;10.552;2023-02-01T17:18:57;4.35;;;1.40;;
21272;SDS011;36726;52.328;10.552;2023-02-01T17:21:26;8.90;;;1.67;;